sensor_id;sensor_type;location;lat;lon;timestamp;P1;durP1;ratioP1;P2;durP2;ratioP2
48006;SDS011;33771;48.180;11.400;2023-02-18T00:02:03;6.13;;;3.30;;
48006;SDS011;33771;48.180;11.400;2023-02-18T00:04:29;4.40;;;2.90;;
48006;SDS011;33771;48.180;11.400;2023-02-18T00:06:54;3.67;;;2.60;;
48006;SDS011;33771;48.180;11.400;2023-02-18T00:09:20;5.87;;;3.10;;
48006;SDS011;33771;48.180;11.400;2023-02-18T00:11:45;7.37;;;3.33;;
48006;SDS011;33771;48.180;11.400;2023-02-18T00:14:12;8.37;;;3.73;;
48006;SDS011;33771;48.180;11.400;2023-02-18T00:16:39;8.47;;;3.70;;
48006;SDS011;33771;48.180;11.400;2023-02-18T00:19:05;7.33;;;3.80;;
48006;SDS011;33771;48.180;11.400;2023-02-18T00:21:34;4.87;;;3.27;;
48006;SDS011;33771;48.180;11.400;2023-02-18T00:24:02;5.77;;;3.10;;
48006;SDS011;33771;48.180;11.400;2023-02-18T00:26:29;7.57;;;3.57;;
48006;SDS011;33771;48.180;11.400;2023-02-18T00:28:54;5.37;;;3.20;;
48006;SDS011;33771;48.180;11.400;2023-02-18T00:31:24;7.57;;;3.20;;
48006;SDS011;33771;48.180;11.400;2023-02-18T00:33:52;6.70;;;3.10;;
48006;SDS011;33771;48.180;11.400;2023-02-18T00:36:19;7.73;;;3.00;;
48006;SDS011;33771;48.180;11.400;2023-02-18T00:38:46;5.13;;;3.20;;
48006;SDS011;33771;48.180;11.400;2023-02-18T00:41:13;5.57;;;3.20;;
48006;SDS011;33771;48.180;11.400;2023-02-18T00:43:40;6.80;;;3.03;;
48006;SDS011;33771;48.180;11.400;2023-02-18T00:46:06;8.40;;;3.37;;
48006;SDS011;33771;48.180;11.400;2023-02-18T00:48:32;4.90;;;2.83;;
48006;SDS011;33771;48.180;11.400;2023-02-18T00:50:58;4.60;;;2.67;;
48006;SDS011;33771;48.180;11.400;2023-02-18T00:53:24;5.60;;;3.23;;
48006;SDS011;33771;48.180;11.400;2023-02-18T00:55:51;6.00;;;3.13;;
48006;SDS011;33771;48.180;11.400;2023-02-18T00:58:16;3.83;;;2.90;;
48006;SDS011;33771;48.180;11.400;2023-02-18T01:00:44;6.33;;;3.10;;
48006;SDS011;33771;48.180;11.400;2023-02-18T01:03:10;4.43;;;2.60;;
48006;SDS011;33771;48.180;11.400;2023-02-18T01:05:36;4.83;;;2.70;;
48006;SDS011;33771;48.180;11.400;2023-02-18T01:08:03;3.73;;;2.50;;
48006;SDS011;33771;48.180;11.400;2023-02-18T01:10:30;6.53;;;2.77;;
48006;SDS011;33771;48.180;11.400;2023-02-18T01:12:56;4.03;;;2.50;;
48006;SDS011;33771;48.180;11.400;2023-02-18T01:15:22;4.83;;;2.40;;
48006;SDS011;33771;48.180;11.400;2023-02-18T01:17:47;5.57;;;3.10;;
48006;SDS011;33771;48.180;11.400;2023-02-18T01:20:13;3.87;;;2.43;;
48006;SDS011;33771;48.180;11.400;2023-02-18T01:22:39;4.20;;;2.80;;
48006;SDS011;33771;48.180;11.400;2023-02-18T01:25:06;4.73;;;2.70;;
48006;SDS011;33771;48.180;11.400;2023-02-18T01:27:32;4.60;;;2.63;;
48006;SDS011;33771;48.180;11.400;2023-02-18T01:29:58;5.67;;;2.80;;
48006;SDS011;33771;48.180;11.400;2023-02-18T01:32:24;8.40;;;3.07;;
48006;SDS011;33771;48.180;11.400;2023-02-18T01:34:49;4.30;;;2.60;;
48006;SDS011;33771;48.180;11.400;2023-02-18T01:37:15;4.77;;;2.80;;
48006;SDS011;33771;48.180;11.400;2023-02-18T01:39:40;6.23;;;2.80;;
48006;SDS011;33771;48.180;11.400;2023-02-18T01:42:06;4.83;;;2.80;;
48006;SDS011;33771;48.180;11.400;2023-02-18T01:44:40;4.10;;;2.83;;
48006;SDS011;33771;48.180;11.400;2023-02-18T01:47:05;5.30;;;3.10;;
48006;SDS011;33771;48.180;11.400;2023-02-18T01:49:32;5.10;;;3.03;;
48006;SDS011;33771;48.180;11.400;2023-02-18T01:52:01;7.47;;;3.53;;
48006;SDS011;33771;48.180;11.400;2023-02-18T01:54:31;5.03;;;3.07;;
48006;SDS011;33771;48.180;11.400;2023-02-18T01:57:04;6.20;;;3.30;;
48006;SDS011;33771;48.180;11.400;2023-02-18T01:59:33;4.43;;;2.80;;
48006;SDS011;33771;48.180;11.400;2023-02-18T02:02:03;7.43;;;3.90;;
48006;SDS011;33771;48.180;11.400;2023-02-18T02:04:32;6.23;;;3.30;;
48006;SDS011;33771;48.180;11.400;2023-02-18T02:06:58;5.57;;;3.40;;
48006;SDS011;33771;48.180;11.400;2023-02-18T02:09:24;7.07;;;3.30;;
48006;SDS011;33771;48.180;11.400;2023-02-18T02:14:46;5.30;;;3.40;;
48006;SDS011;33771;48.180;11.400;2023-02-18T02:25:48;6.57;;;3.20;;
48006;SDS011;33771;48.180;11.400;2023-02-18T02:37:03;6.80;;;2.63;;
48006;SDS011;33771;48.180;11.400;2023-02-18T02:40:03;4.47;;;2.65;;
48006;SDS011;33771;48.180;11.400;2023-02-18T02:42:45;4.60;;;2.90;;
48006;SDS011;33771;48.180;11.400;2023-02-18T02:45:27;5.17;;;2.87;;
48006;SDS011;33771;48.180;11.400;2023-02-18T02:53:51;3.53;;;2.70;;
48006;SDS011;33771;48.180;11.400;2023-02-18T02:56:18;4.33;;;3.00;;
48006;SDS011;33771;48.180;11.400;2023-02-18T02:58:49;4.37;;;2.50;;
48006;SDS011;33771;48.180;11.400;2023-02-18T03:15:07;3.97;;;2.20;;
48006;SDS011;33771;48.180;11.400;2023-02-18T03:17:57;3.97;;;2.40;;
48006;SDS011;33771;48.180;11.400;2023-02-18T03:20:28;3.43;;;2.20;;
48006;SDS011;33771;48.180;11.400;2023-02-18T03:22:59;3.67;;;2.30;;
48006;SDS011;33771;48.180;11.400;2023-02-18T03:25:30;2.90;;;2.00;;
48006;SDS011;33771;48.180;11.400;2023-02-18T03:28:02;4.77;;;2.23;;
48006;SDS011;33771;48.180;11.400;2023-02-18T03:30:39;4.57;;;2.05;;
48006;SDS011;33771;48.180;11.400;2023-02-18T03:33:19;4.03;;;2.20;;
48006;SDS011;33771;48.180;11.400;2023-02-18T03:35:50;3.63;;;2.20;;
48006;SDS011;33771;48.180;11.400;2023-02-18T03:38:20;4.27;;;1.90;;
48006;SDS011;33771;48.180;11.400;2023-02-18T03:40:59;3.27;;;2.00;;
48006;SDS011;33771;48.180;11.400;2023-02-18T03:43:24;4.37;;;2.30;;
48006;SDS011;33771;48.180;11.400;2023-02-18T03:45:50;4.57;;;1.93;;
48006;SDS011;33771;48.180;11.400;2023-02-18T03:48:16;4.03;;;2.17;;
48006;SDS011;33771;48.180;11.400;2023-02-18T03:50:42;3.67;;;2.27;;
48006;SDS011;33771;48.180;11.400;2023-02-18T03:53:07;2.87;;;2.00;;
48006;SDS011;33771;48.180;11.400;2023-02-18T03:55:33;2.30;;;1.87;;
48006;SDS011;33771;48.180;11.400;2023-02-18T03:57:59;3.07;;;2.03;;
48006;SDS011;33771;48.180;11.400;2023-02-18T04:00:24;3.57;;;1.77;;
48006;SDS011;33771;48.180;11.400;2023-02-18T04:02:50;4.27;;;2.23;;
48006;SDS011;33771;48.180;11.400;2023-02-18T04:05:15;2.33;;;1.70;;
48006;SDS011;33771;48.180;11.400;2023-02-18T04:07:41;3.77;;;1.90;;
48006;SDS011;33771;48.180;11.400;2023-02-18T04:10:06;4.07;;;2.20;;
48006;SDS011;33771;48.180;11.400;2023-02-18T04:12:32;3.17;;;2.30;;
48006;SDS011;33771;48.180;11.400;2023-02-18T04:14:58;3.53;;;2.10;;
48006;SDS011;33771;48.180;11.400;2023-02-18T04:17:24;3.03;;;2.30;;
48006;SDS011;33771;48.180;11.400;2023-02-18T04:19:49;5.80;;;2.67;;
48006;SDS011;33771;48.180;11.400;2023-02-18T04:22:15;3.67;;;2.23;;
48006;SDS011;33771;48.180;11.400;2023-02-18T04:24:40;5.13;;;2.37;;
48006;SDS011;33771;48.180;11.400;2023-02-18T04:27:06;4.50;;;2.20;;
48006;SDS011;33771;48.180;11.400;2023-02-18T04:29:31;2.83;;;1.97;;
48006;SDS011;33771;48.180;11.400;2023-02-18T04:31:57;3.23;;;2.10;;
48006;SDS011;33771;48.180;11.400;2023-02-18T04:34:22;3.67;;;2.30;;
48006;SDS011;33771;48.180;11.400;2023-02-18T04:36:48;2.90;;;2.20;;
48006;SDS011;33771;48.180;11.400;2023-02-18T04:39:13;2.80;;;2.07;;
48006;SDS011;33771;48.180;11.400;2023-02-18T04:41:39;3.43;;;2.50;;
48006;SDS011;33771;48.180;11.400;2023-02-18T04:44:04;2.57;;;1.90;;
48006;SDS011;33771;48.180;11.400;2023-02-18T04:46:30;3.23;;;2.03;;
48006;SDS011;33771;48.180;11.400;2023-02-18T04:48:56;2.87;;;2.00;;
48006;SDS011;33771;48.180;11.400;2023-02-18T04:51:22;3.33;;;1.83;;
48006;SDS011;33771;48.180;11.400;2023-02-18T04:53:48;3.23;;;1.90;;
48006;SDS011;33771;48.180;11.400;2023-02-18T04:56:13;2.00;;;1.57;;
48006;SDS011;33771;48.180;11.400;2023-02-18T04:58:39;2.43;;;1.83;;
48006;SDS011;33771;48.180;11.400;2023-02-18T05:01:05;2.93;;;2.00;;
48006;SDS011;33771;48.180;11.400;2023-02-18T05:03:30;2.27;;;1.90;;
48006;SDS011;33771;48.180;11.400;2023-02-18T05:05:56;2.80;;;1.80;;
48006;SDS011;33771;48.180;11.400;2023-02-18T05:08:22;2.73;;;1.70;;
48006;SDS011;33771;48.180;11.400;2023-02-18T05:10:48;2.67;;;1.73;;
48006;SDS011;33771;48.180;11.400;2023-02-18T05:13:14;2.50;;;1.67;;
48006;SDS011;33771;48.180;11.400;2023-02-18T05:15:39;3.40;;;2.03;;
48006;SDS011;33771;48.180;11.400;2023-02-18T05:18:05;3.00;;;1.50;;
48006;SDS011;33771;48.180;11.400;2023-02-18T05:20:31;2.07;;;1.50;;
48006;SDS011;33771;48.180;11.400;2023-02-18T05:22:57;2.40;;;1.60;;
48006;SDS011;33771;48.180;11.400;2023-02-18T05:25:23;2.27;;;1.63;;
48006;SDS011;33771;48.180;11.400;2023-02-18T05:27:48;2.30;;;1.70;;
48006;SDS011;33771;48.180;11.400;2023-02-18T05:30:14;2.30;;;1.70;;
48006;SDS011;33771;48.180;11.400;2023-02-18T05:32:39;2.27;;;1.50;;
48006;SDS011;33771;48.180;11.400;2023-02-18T05:35:05;3.73;;;1.50;;
48006;SDS011;33771;48.180;11.400;2023-02-18T05:37:31;1.80;;;1.40;;
48006;SDS011;33771;48.180;11.400;2023-02-18T05:39:57;2.00;;;1.40;;
48006;SDS011;33771;48.180;11.400;2023-02-18T05:42:22;3.73;;;1.50;;
48006;SDS011;33771;48.180;11.400;2023-02-18T05:44:48;1.70;;;1.20;;
48006;SDS011;33771;48.180;11.400;2023-02-18T05:47:13;2.43;;;1.30;;
48006;SDS011;33771;48.180;11.400;2023-02-18T05:49:40;1.73;;;1.20;;
48006;SDS011;33771;48.180;11.400;2023-02-18T05:52:06;2.40;;;1.40;;
48006;SDS011;33771;48.180;11.400;2023-02-18T05:54:32;1.70;;;1.33;;
48006;SDS011;33771;48.180;11.400;2023-02-18T05:56:59;2.07;;;1.40;;
48006;SDS011;33771;48.180;11.400;2023-02-18T05:59:25;2.03;;;1.20;;
48006;SDS011;33771;48.180;11.400;2023-02-18T06:01:51;1.77;;;1.10;;
48006;SDS011;33771;48.180;11.400;2023-02-18T06:04:16;1.63;;;1.10;;
48006;SDS011;33771;48.180;11.400;2023-02-18T06:06:42;1.40;;;1.20;;
48006;SDS011;33771;48.180;11.400;2023-02-18T06:09:08;2.47;;;1.10;;
48006;SDS011;33771;48.180;11.400;2023-02-18T06:11:33;1.80;;;1.10;;
48006;SDS011;33771;48.180;11.400;2023-02-18T06:14:00;1.80;;;1.10;;
48006;SDS011;33771;48.180;11.400;2023-02-18T06:16:26;1.50;;;1.20;;
48006;SDS011;33771;48.180;11.400;2023-02-18T06:18:52;1.10;;;1.00;;
48006;SDS011;33771;48.180;11.400;2023-02-18T06:21:18;2.97;;;1.20;;
48006;SDS011;33771;48.180;11.400;2023-02-18T06:23:43;2.07;;;1.17;;
48006;SDS011;33771;48.180;11.400;2023-02-18T06:26:09;3.10;;;1.40;;
48006;SDS011;33771;48.180;11.400;2023-02-18T06:28:35;1.57;;;1.10;;
48006;SDS011;33771;48.180;11.400;2023-02-18T06:31:01;1.03;;;0.90;;
48006;SDS011;33771;48.180;11.400;2023-02-18T06:33:26;2.10;;;1.00;;
48006;SDS011;33771;48.180;11.400;2023-02-18T06:35:56;2.73;;;1.30;;
48006;SDS011;33771;48.180;11.400;2023-02-18T06:38:23;1.43;;;1.07;;
48006;SDS011;33771;48.180;11.400;2023-02-18T06:40:49;1.43;;;1.20;;
48006;SDS011;33771;48.180;11.400;2023-02-18T06:43:18;2.53;;;1.13;;
48006;SDS011;33771;48.180;11.400;2023-02-18T06:45:44;1.30;;;0.93;;
48006;SDS011;33771;48.180;11.400;2023-02-18T06:48:10;0.90;;;0.80;;
48006;SDS011;33771;48.180;11.400;2023-02-18T06:50:36;1.50;;;0.90;;
48006;SDS011;33771;48.180;11.400;2023-02-18T06:53:01;1.20;;;1.00;;
48006;SDS011;33771;48.180;11.400;2023-02-18T06:55:27;1.40;;;0.90;;
48006;SDS011;33771;48.180;11.400;2023-02-18T06:57:52;1.20;;;0.97;;
48006;SDS011;33771;48.180;11.400;2023-02-18T07:00:18;1.27;;;1.00;;
48006;SDS011;33771;48.180;11.400;2023-02-18T07:02:44;2.40;;;1.27;;
48006;SDS011;33771;48.180;11.400;2023-02-18T07:05:09;1.07;;;0.80;;
48006;SDS011;33771;48.180;11.400;2023-02-18T07:07:35;1.67;;;1.13;;
48006;SDS011;33771;48.180;11.400;2023-02-18T07:10:00;2.27;;;1.10;;
48006;SDS011;33771;48.180;11.400;2023-02-18T07:12:26;2.07;;;0.90;;
48006;SDS011;33771;48.180;11.400;2023-02-18T07:14:52;1.40;;;0.90;;
48006;SDS011;33771;48.180;11.400;2023-02-18T07:17:18;1.77;;;1.13;;
48006;SDS011;33771;48.180;11.400;2023-02-18T07:19:43;1.47;;;0.90;;
48006;SDS011;33771;48.180;11.400;2023-02-18T07:22:11;1.57;;;1.03;;
48006;SDS011;33771;48.180;11.400;2023-02-18T07:24:36;0.90;;;0.80;;
48006;SDS011;33771;48.180;11.400;2023-02-18T07:27:02;0.70;;;0.70;;
48006;SDS011;33771;48.180;11.400;2023-02-18T07:29:28;1.63;;;0.90;;
48006;SDS011;33771;48.180;11.400;2023-02-18T07:31:53;1.60;;;0.73;;
48006;SDS011;33771;48.180;11.400;2023-02-18T07:34:19;2.30;;;0.93;;
48006;SDS011;33771;48.180;11.400;2023-02-18T07:36:47;2.47;;;0.97;;
48006;SDS011;33771;48.180;11.400;2023-02-18T07:39:13;1.00;;;0.90;;
48006;SDS011;33771;48.180;11.400;2023-02-18T07:41:38;1.20;;;0.90;;
48006;SDS011;33771;48.180;11.400;2023-02-18T07:44:04;1.00;;;0.80;;
48006;SDS011;33771;48.180;11.400;2023-02-18T07:46:29;1.20;;;0.90;;
48006;SDS011;33771;48.180;11.400;2023-02-18T07:48:55;2.60;;;1.00;;
48006;SDS011;33771;48.180;11.400;2023-02-18T07:51:21;2.40;;;0.83;;
48006;SDS011;33771;48.180;11.400;2023-02-18T07:53:47;1.43;;;0.63;;
48006;SDS011;33771;48.180;11.400;2023-02-18T07:56:13;1.67;;;0.80;;
48006;SDS011;33771;48.180;11.400;2023-02-18T07:58:38;0.97;;;0.80;;
48006;SDS011;33771;48.180;11.400;2023-02-18T08:01:05;1.80;;;0.90;;
48006;SDS011;33771;48.180;11.400;2023-02-18T08:03:31;1.20;;;1.00;;
48006;SDS011;33771;48.180;11.400;2023-02-18T08:05:58;1.80;;;1.00;;
48006;SDS011;33771;48.180;11.400;2023-02-18T08:08:25;1.70;;;1.00;;
48006;SDS011;33771;48.180;11.400;2023-02-18T08:10:53;1.47;;;1.00;;
48006;SDS011;33771;48.180;11.400;2023-02-18T08:13:20;2.37;;;0.90;;
48006;SDS011;33771;48.180;11.400;2023-02-18T08:15:46;1.13;;;0.87;;
48006;SDS011;33771;48.180;11.400;2023-02-18T08:18:14;1.37;;;0.90;;
48006;SDS011;33771;48.180;11.400;2023-02-18T08:20:44;1.13;;;0.90;;
48006;SDS011;33771;48.180;11.400;2023-02-18T08:23:13;1.17;;;0.80;;
48006;SDS011;33771;48.180;11.400;2023-02-18T08:25:43;1.53;;;1.00;;
48006;SDS011;33771;48.180;11.400;2023-02-18T08:28:11;2.53;;;0.90;;
48006;SDS011;33771;48.180;11.400;2023-02-18T08:30:37;1.05;;;0.77;;
48006;SDS011;33771;48.180;11.400;2023-02-18T08:33:02;1.90;;;0.70;;
48006;SDS011;33771;48.180;11.400;2023-02-18T08:35:28;1.03;;;0.70;;
48006;SDS011;33771;48.180;11.400;2023-02-18T08:37:54;1.03;;;0.80;;
48006;SDS011;33771;48.180;11.400;2023-02-18T08:40:19;1.93;;;0.73;;
48006;SDS011;33771;48.180;11.400;2023-02-18T08:42:45;1.08;;;0.70;;
48006;SDS011;33771;48.180;11.400;2023-02-18T08:45:11;2.00;;;0.80;;
48006;SDS011;33771;48.180;11.400;2023-02-18T08:47:36;1.10;;;0.83;;
48006;SDS011;33771;48.180;11.400;2023-02-18T08:50:02;2.00;;;1.10;;
48006;SDS011;33771;48.180;11.400;2023-02-18T08:52:29;0.70;;;0.70;;
48006;SDS011;33771;48.180;11.400;2023-02-18T08:54:54;0.88;;;0.80;;
48006;SDS011;33771;48.180;11.400;2023-02-18T08:57:20;1.02;;;0.80;;
48006;SDS011;33771;48.180;11.400;2023-02-18T08:59:45;3.38;;;1.10;;
48006;SDS011;33771;48.180;11.400;2023-02-18T09:02:14;1.77;;;0.93;;
48006;SDS011;33771;48.180;11.400;2023-02-18T09:04:40;1.83;;;1.30;;
48006;SDS011;33771;48.180;11.400;2023-02-18T09:07:05;0.93;;;0.80;;
48006;SDS011;33771;48.180;11.400;2023-02-18T09:09:31;0.98;;;0.80;;
48006;SDS011;33771;48.180;11.400;2023-02-18T09:11:56;1.83;;;0.83;;
48006;SDS011;33771;48.180;11.400;2023-02-18T09:14:22;1.60;;;0.80;;
48006;SDS011;33771;48.180;11.400;2023-02-18T09:16:48;1.90;;;1.00;;
48006;SDS011;33771;48.180;11.400;2023-02-18T09:19:14;2.03;;;1.03;;
48006;SDS011;33771;48.180;11.400;2023-02-18T09:21:40;1.20;;;0.90;;
48006;SDS011;33771;48.180;11.400;2023-02-18T09:24:06;3.27;;;1.00;;
48006;SDS011;33771;48.180;11.400;2023-02-18T09:26:31;2.58;;;1.10;;
48006;SDS011;33771;48.180;11.400;2023-02-18T09:28:57;3.65;;;1.10;;
48006;SDS011;33771;48.180;11.400;2023-02-18T09:31:24;1.97;;;1.07;;
48006;SDS011;33771;48.180;11.400;2023-02-18T09:33:58;3.03;;;1.05;;
48006;SDS011;33771;48.180;11.400;2023-02-18T09:36:26;1.35;;;1.00;;
48006;SDS011;33771;48.180;11.400;2023-02-18T09:38:52;1.77;;;0.98;;
48006;SDS011;33771;48.180;11.400;2023-02-18T09:43:59;1.52;;;0.90;;
48006;SDS011;33771;48.180;11.400;2023-02-18T09:49:21;3.72;;;1.08;;
48006;SDS011;33771;48.180;11.400;2023-02-18T09:51:49;3.03;;;1.00;;
48006;SDS011;33771;48.180;11.400;2023-02-18T09:54:17;2.00;;;0.90;;
48006;SDS011;33771;48.180;11.400;2023-02-18T09:56:44;1.10;;;0.88;;
48006;SDS011;33771;48.180;11.400;2023-02-18T09:59:12;1.67;;;1.02;;
48006;SDS011;33771;48.180;11.400;2023-02-18T10:01:44;1.38;;;1.05;;
48006;SDS011;33771;48.180;11.400;2023-02-18T10:04:24;1.25;;;0.90;;
48006;SDS011;33771;48.180;11.400;2023-02-18T10:06:58;2.05;;;1.23;;
48006;SDS011;33771;48.180;11.400;2023-02-18T10:09:28;1.08;;;0.90;;
48006;SDS011;33771;48.180;11.400;2023-02-18T10:12:01;0.98;;;0.90;;
48006;SDS011;33771;48.180;11.400;2023-02-18T10:14:37;2.25;;;0.82;;
48006;SDS011;33771;48.180;11.400;2023-02-18T10:17:02;2.15;;;0.98;;
48006;SDS011;33771;48.180;11.400;2023-02-18T10:19:31;2.35;;;1.00;;
48006;SDS011;33771;48.180;11.400;2023-02-18T10:22:00;3.38;;;1.00;;
48006;SDS011;33771;48.180;11.400;2023-02-18T10:24:30;1.50;;;1.00;;
48006;SDS011;33771;48.180;11.400;2023-02-18T10:26:59;2.08;;;1.20;;
48006;SDS011;33771;48.180;11.400;2023-02-18T10:29:27;3.22;;;1.00;;
48006;SDS011;33771;48.180;11.400;2023-02-18T10:31:58;2.05;;;1.10;;
48006;SDS011;33771;48.180;11.400;2023-02-18T10:34:58;3.22;;;1.05;;
48006;SDS011;33771;48.180;11.400;2023-02-18T10:45:47;2.38;;;1.05;;
48006;SDS011;33771;48.180;11.400;2023-02-18T10:51:28;2.30;;;1.10;;
48006;SDS011;33771;48.180;11.400;2023-02-18T10:53:57;2.55;;;1.10;;
48006;SDS011;33771;48.180;11.400;2023-02-18T10:56:39;1.63;;;0.93;;
48006;SDS011;33771;48.180;11.400;2023-02-18T10:59:13;1.92;;;1.08;;
48006;SDS011;33771;48.180;11.400;2023-02-18T11:04:43;3.05;;;1.00;;
48006;SDS011;33771;48.180;11.400;2023-02-18T11:09:47;1.20;;;0.75;;
48006;SDS011;33771;48.180;11.400;2023-02-18T11:12:27;3.88;;;1.02;;
48006;SDS011;33771;48.180;11.400;2023-02-18T11:17:40;1.38;;;0.80;;
48006;SDS011;33771;48.180;11.400;2023-02-18T11:25:31;3.13;;;0.75;;
48006;SDS011;33771;48.180;11.400;2023-02-18T11:28:06;3.25;;;0.98;;
48006;SDS011;33771;48.180;11.400;2023-02-18T11:31:04;1.40;;;0.90;;
48006;SDS011;33771;48.180;11.400;2023-02-18T11:33:37;2.88;;;0.77;;
48006;SDS011;33771;48.180;11.400;2023-02-18T11:36:11;2.42;;;0.80;;
48006;SDS011;33771;48.180;11.400;2023-02-18T11:38:48;2.85;;;0.75;;
48006;SDS011;33771;48.180;11.400;2023-02-18T11:41:20;2.83;;;0.90;;
48006;SDS011;33771;48.180;11.400;2023-02-18T11:43:54;0.93;;;0.70;;
48006;SDS011;33771;48.180;11.400;2023-02-18T11:46:21;2.20;;;0.90;;
48006;SDS011;33771;48.180;11.400;2023-02-18T11:48:49;1.13;;;0.70;;
48006;SDS011;33771;48.180;11.400;2023-02-18T11:51:19;2.22;;;0.82;;
48006;SDS011;33771;48.180;11.400;2023-02-18T11:53:56;2.75;;;0.70;;
48006;SDS011;33771;48.180;11.400;2023-02-18T11:58:49;1.60;;;0.90;;
48006;SDS011;33771;48.180;11.400;2023-02-18T12:06:48;1.88;;;0.90;;
48006;SDS011;33771;48.180;11.400;2023-02-18T12:09:18;2.00;;;0.90;;
48006;SDS011;33771;48.180;11.400;2023-02-18T12:11:52;1.65;;;0.60;;
48006;SDS011;33771;48.180;11.400;2023-02-18T12:14:20;1.15;;;0.90;;
48006;SDS011;33771;48.180;11.400;2023-02-18T12:22:43;6.57;;;1.50;;
48006;SDS011;33771;48.180;11.400;2023-02-18T12:33:02;0.90;;;0.70;;
48006;SDS011;33771;48.180;11.400;2023-02-18T12:51:56;4.32;;;1.00;;
48006;SDS011;33771;48.180;11.400;2023-02-18T13:05:31;1.27;;;0.80;;
48006;SDS011;33771;48.180;11.400;2023-02-18T13:08:12;0.85;;;0.75;;
48006;SDS011;33771;48.180;11.400;2023-02-18T13:14:03;2.80;;;1.10;;
48006;SDS011;33771;48.180;11.400;2023-02-18T13:16:37;3.38;;;0.98;;
48006;SDS011;33771;48.180;11.400;2023-02-18T13:19:20;0.95;;;0.70;;
48006;SDS011;33771;48.180;11.400;2023-02-18T13:22:03;3.75;;;1.02;;
48006;SDS011;33771;48.180;11.400;2023-02-18T13:24:33;1.30;;;0.90;;
48006;SDS011;33771;48.180;11.400;2023-02-18T13:27:05;2.72;;;0.95;;
48006;SDS011;33771;48.180;11.400;2023-02-18T13:35:14;2.90;;;1.15;;
48006;SDS011;33771;48.180;11.400;2023-02-18T13:40:29;2.05;;;1.00;;
48006;SDS011;33771;48.180;11.400;2023-02-18T13:43:16;1.73;;;1.10;;
48006;SDS011;33771;48.180;11.400;2023-02-18T13:48:53;3.20;;;0.98;;
48006;SDS011;33771;48.180;11.400;2023-02-18T13:51:40;2.78;;;1.30;;
48006;SDS011;33771;48.180;11.400;2023-02-18T13:56:42;1.60;;;0.85;;
48006;SDS011;33771;48.180;11.400;2023-02-18T13:59:14;3.63;;;1.10;;
48006;SDS011;33771;48.180;11.400;2023-02-18T14:01:44;2.83;;;1.08;;
48006;SDS011;33771;48.180;11.400;2023-02-18T14:09:50;3.70;;;1.02;;
48006;SDS011;33771;48.180;11.400;2023-02-18T14:14:57;0.90;;;0.77;;
48006;SDS011;33771;48.180;11.400;2023-02-18T14:17:31;1.95;;;1.02;;
48006;SDS011;33771;48.180;11.400;2023-02-18T14:27:32;1.15;;;0.95;;
48006;SDS011;33771;48.180;11.400;2023-02-18T14:32:43;2.67;;;0.90;;
48006;SDS011;33771;48.180;11.400;2023-02-18T14:41:02;1.88;;;0.80;;
48006;SDS011;33771;48.180;11.400;2023-02-18T14:52:10;2.97;;;1.15;;
48006;SDS011;33771;48.180;11.400;2023-02-18T14:54:46;1.52;;;0.82;;
48006;SDS011;33771;48.180;11.400;2023-02-18T14:57:13;2.83;;;0.75;;
48006;SDS011;33771;48.180;11.400;2023-02-18T14:59:42;1.40;;;0.90;;
48006;SDS011;33771;48.180;11.400;2023-02-18T15:04:47;1.25;;;0.98;;
48006;SDS011;33771;48.180;11.400;2023-02-18T15:07:17;2.00;;;0.88;;
48006;SDS011;33771;48.180;11.400;2023-02-18T15:09:46;1.10;;;0.80;;
48006;SDS011;33771;48.180;11.400;2023-02-18T15:12:17;2.10;;;0.82;;
48006;SDS011;33771;48.180;11.400;2023-02-18T15:14:46;2.28;;;0.90;;
48006;SDS011;33771;48.180;11.400;2023-02-18T15:17:21;1.63;;;0.98;;
48006;SDS011;33771;48.180;11.400;2023-02-18T15:19:51;1.10;;;0.70;;
48006;SDS011;33771;48.180;11.400;2023-02-18T15:22:21;7.78;;;1.13;;
48006;SDS011;33771;48.180;11.400;2023-02-18T15:24:48;1.95;;;1.10;;
48006;SDS011;33771;48.180;11.400;2023-02-18T15:27:16;2.90;;;0.85;;
48006;SDS011;33771;48.180;11.400;2023-02-18T15:29:47;2.42;;;0.90;;
48006;SDS011;33771;48.180;11.400;2023-02-18T15:32:21;1.73;;;0.90;;
48006;SDS011;33771;48.180;11.400;2023-02-18T15:34:51;3.92;;;0.80;;
48006;SDS011;33771;48.180;11.400;2023-02-18T15:37:22;1.30;;;0.75;;
48006;SDS011;33771;48.180;11.400;2023-02-18T15:39:47;2.60;;;1.05;;
48006;SDS011;33771;48.180;11.400;2023-02-18T15:42:27;1.85;;;0.77;;
48006;SDS011;33771;48.180;11.400;2023-02-18T15:45:08;1.05;;;0.90;;
48006;SDS011;33771;48.180;11.400;2023-02-18T15:47:50;1.50;;;1.10;;
48006;SDS011;33771;48.180;11.400;2023-02-18T15:52:46;1.58;;;0.80;;
48006;SDS011;33771;48.180;11.400;2023-02-18T15:55:20;0.88;;;0.60;;
48006;SDS011;33771;48.180;11.400;2023-02-18T15:58:02;4.20;;;0.90;;
48006;SDS011;33771;48.180;11.400;2023-02-18T16:03:24;1.33;;;0.98;;
48006;SDS011;33771;48.180;11.400;2023-02-18T16:06:07;2.65;;;0.95;;
48006;SDS011;33771;48.180;11.400;2023-02-18T16:08:34;1.40;;;0.90;;
48006;SDS011;33771;48.180;11.400;2023-02-18T16:11:22;2.03;;;1.20;;
48006;SDS011;33771;48.180;11.400;2023-02-18T16:13:48;1.20;;;0.90;;
48006;SDS011;33771;48.180;11.400;2023-02-18T16:16:26;0.88;;;0.80;;
48006;SDS011;33771;48.180;11.400;2023-02-18T16:18:53;1.63;;;0.90;;
48006;SDS011;33771;48.180;11.400;2023-02-18T16:23:51;1.50;;;0.93;;
48006;SDS011;33771;48.180;11.400;2023-02-18T16:29:14;1.23;;;0.80;;
48006;SDS011;33771;48.180;11.400;2023-02-18T16:31:47;1.35;;;0.90;;
48006;SDS011;33771;48.180;11.400;2023-02-18T16:34:13;1.92;;;1.05;;
48006;SDS011;33771;48.180;11.400;2023-02-18T16:36:39;2.53;;;1.10;;
48006;SDS011;33771;48.180;11.400;2023-02-18T16:41:57;1.45;;;1.00;;
48006;SDS011;33771;48.180;11.400;2023-02-18T16:44:23;2.53;;;1.10;;
48006;SDS011;33771;48.180;11.400;2023-02-18T16:46:48;2.00;;;1.23;;
48006;SDS011;33771;48.180;11.400;2023-02-18T16:49:14;2.08;;;1.10;;
48006;SDS011;33771;48.180;11.400;2023-02-18T16:51:40;1.25;;;1.08;;
48006;SDS011;33771;48.180;11.400;2023-02-18T16:54:09;2.97;;;0.90;;
48006;SDS011;33771;48.180;11.400;2023-02-18T16:56:36;2.03;;;1.20;;
48006;SDS011;33771;48.180;11.400;2023-02-18T16:59:02;2.92;;;1.10;;
48006;SDS011;33771;48.180;11.400;2023-02-18T17:01:29;1.80;;;1.20;;
48006;SDS011;33771;48.180;11.400;2023-02-18T17:04:05;19.92;;;13.70;;
48006;SDS011;33771;48.180;11.400;2023-02-18T17:06:34;5.25;;;3.88;;
48006;SDS011;33771;48.180;11.400;2023-02-18T17:08:59;4.07;;;1.60;;
48006;SDS011;33771;48.180;11.400;2023-02-18T17:11:27;4.53;;;2.90;;
48006;SDS011;33771;48.180;11.400;2023-02-18T17:13:55;8.93;;;3.50;;
48006;SDS011;33771;48.180;11.400;2023-02-18T17:16:24;9.30;;;4.50;;
48006;SDS011;33771;48.180;11.400;2023-02-18T17:18:53;4.38;;;2.50;;
48006;SDS011;33771;48.180;11.400;2023-02-18T17:21:19;4.90;;;2.60;;
48006;SDS011;33771;48.180;11.400;2023-02-18T17:23:46;5.32;;;2.88;;
48006;SDS011;33771;48.180;11.400;2023-02-18T17:26:23;3.83;;;2.50;;
48006;SDS011;33771;48.180;11.400;2023-02-18T17:28:50;6.28;;;3.03;;
48006;SDS011;33771;48.180;11.400;2023-02-18T17:31:19;3.22;;;1.80;;
48006;SDS011;33771;48.180;11.400;2023-02-18T17:33:47;9.10;;;4.05;;
48006;SDS011;33771;48.180;11.400;2023-02-18T17:36:13;2.13;;;1.33;;
48006;SDS011;33771;48.180;11.400;2023-02-18T17:38:39;2.67;;;1.20;;
48006;SDS011;33771;48.180;11.400;2023-02-18T17:41:05;2.55;;;1.20;;
48006;SDS011;33771;48.180;11.400;2023-02-18T17:43:31;4.57;;;2.20;;
48006;SDS011;33771;48.180;11.400;2023-02-18T17:45:57;6.85;;;3.10;;
48006;SDS011;33771;48.180;11.400;2023-02-18T17:48:24;3.33;;;1.92;;